Time;durP1;ratioP1;P1;durP2;ratioP2;P2;SDS_P1;SDS_P2;PMS_P1;PMS_P2;Temp;Humidity;BMP_temperature;BMP_pressure;BME280_temperature;BME280_humidity;BME280_pressure;Samples;Min_cycle;Max_cycle;Signal;HPM_P1;HPM_P2
2022/10/30 00:01:30;;;;;;;0.20;0.20;;;17.70;99.90;18.90;101479.00;;;;5054425;28;20187;-72
2022/10/30 00:03:56;;;;;;;0.20;0.20;;;17.70;99.90;19.00;101483.00;;;;5055520;28;20641;-72
2022/10/30 00:06:22;;;;;;;0.20;0.20;;;17.60;99.90;19.50;101495.00;;;;5037677;28;20195;-72
2022/10/30 00:08:48;;;;;;;0.20;0.20;;;17.80;99.90;19.00;101493.00;;;;5054371;28;20192;-72
2022/10/30 00:11:14;;;;;;;0.20;0.20;;;17.70;99.90;18.90;101496.00;;;;5054152;28;20207;-72
2022/10/30 00:13:43;;;;;;;0.20;0.20;;;17.70;99.90;18.70;101477.00;;;;5054159;28;20216;-72
2022/10/30 00:16:09;;;;;;;0.43;0.43;;;17.60;99.90;18.70;101500.00;;;;5054323;28;20245;-72
2022/10/30 00:18:44;;;;;;;0.20;0.20;;;17.50;99.90;18.50;101474.00;;;;5055435;28;20263;-72
2022/10/30 00:21:13;;;;;;;0.30;0.30;;;17.40;99.90;18.40;101480.00;;;;5054307;28;20176;-72
2022/10/30 00:23:46;;;;;;;0.20;0.20;;;17.30;99.90;18.40;101480.00;;;;5037327;28;20629;-72
2022/10/30 00:26:12;;;;;;;0.30;0.30;;;17.30;99.90;18.50;101484.00;;;;5054239;28;20202;-72
2022/10/30 00:28:43;;;;;;;1.13;1.13;;;17.30;99.90;18.50;101480.00;;;;5053843;28;20177;-72
2022/10/30 00:31:10;;;;;;;3.23;2.90;;;17.30;99.90;18.50;101482.00;;;;5053768;28;20321;-72
2022/10/30 00:33:35;;;;;;;0.20;0.20;;;17.30;99.90;18.70;101481.00;;;;5054977;28;20185;-72
2022/10/30 00:36:10;;;;;;;0.20;0.20;;;17.40;99.90;18.60;101470.00;;;;5053995;28;20636;-72
2022/10/30 00:38:38;;;;;;;0.20;0.20;;;17.40;99.90;18.60;101474.00;;;;5053659;28;20194;-72
2022/10/30 00:41:17;;;;;;;0.23;0.23;;;17.30;99.90;18.50;101453.00;;;;5054997;28;20173;-72
2022/10/30 00:43:43;;;;;;;0.20;0.20;;;17.30;99.90;18.30;101430.00;;;;5054785;28;20196;-72
2022/10/30 00:46:36;;;;;;;0.20;0.20;;;17.30;99.90;18.20;101479.00;;;;5053868;28;20183;-72
2022/10/30 00:49:11;;;;;;;0.30;0.30;;;17.20;99.90;18.30;101485.00;;;;5053082;28;20278;-72
2022/10/30 00:51:49;;;;;;;0.20;0.20;;;17.20;99.90;18.40;101466.00;;;;5053578;28;20221;-72
2022/10/30 00:54:17;;;;;;;0.30;0.30;;;17.20;99.90;18.40;101484.00;;;;5053282;28;20521;-72
2022/10/30 00:56:44;;;;;;;0.20;0.20;;;17.20;99.90;18.40;101484.00;;;;5036442;28;20644;-72
2022/10/30 00:59:21;;;;;;;0.20;0.20;;;17.20;99.90;18.30;101447.00;;;;5036866;28;20199;-73
2022/10/30 01:01:50;;;;;;;0.20;0.20;;;17.20;99.90;18.10;101481.00;;;;5053147;28;20189;-72
2022/10/30 01:04:16;;;;;;;0.20;0.20;;;17.20;99.90;18.50;101472.00;;;;5052888;28;20278;-72
2022/10/30 01:06:47;;;;;;;0.20;0.20;;;17.20;99.90;18.40;101477.00;;;;5053349;28;20164;-71
2022/10/30 01:09:14;;;;;;;0.20;0.20;;;17.20;99.90;18.30;101466.00;;;;5053025;28;20179;-72
2022/10/30 01:11:43;;;;;;;0.20;0.20;;;17.20;99.90;18.40;101422.00;;;;5036703;28;20729;-71
2022/10/30 01:14:22;;;;;;;0.20;0.20;;;17.20;99.90;18.50;101478.00;;;;5053075;28;20189;-71
2022/10/30 01:16:54;;;;;;;0.20;0.20;;;17.20;99.90;18.30;101469.00;;;;5053320;28;20204;-71
2022/10/30 01:20:12;;;;;;;0.20;0.20;;;17.20;99.90;18.30;101480.00;;;;5052836;28;20621;-72
2022/10/30 01:23:32;;;;;;;0.20;0.20;;;17.10;99.90;18.70;101480.00;;;;5054229;28;20199;-72
2022/10/30 01:26:29;;;;;;;0.20;0.20;;;17.20;99.90;18.50;101472.00;;;;5054057;28;20172;-72
2022/10/30 01:29:37;;;;;;;0.63;0.60;;;17.20;99.90;18.20;101472.00;;;;5054249;28;20504;-72
2022/10/30 01:32:36;;;;;;;0.30;0.30;;;17.10;99.90;18.00;101474.00;;;;5011126;28;20288;-72
2022/10/30 01:35:58;;;;;;;0.20;0.20;;;17.00;99.90;18.20;101479.00;;;;4995318;28;20601;-72
2022/10/30 01:39:06;;;;;;;0.40;0.40;;;17.00;99.90;18.20;101465.00;;;;4995611;28;20186;-72
2022/10/30 01:42:06;;;;;;;0.20;0.20;;;17.00;99.90;17.80;101456.00;;;;4995732;28;20198;-72
2022/10/30 01:45:03;;;;;;;0.20;0.20;;;16.90;99.90;17.70;101466.00;;;;5011283;28;20291;-72
2022/10/30 01:48:23;;;;;;;0.20;0.20;;;16.80;99.90;17.80;101455.00;;;;5011831;28;20279;-72
2022/10/30 01:51:49;;;;;;;0.20;0.20;;;16.80;99.90;17.80;101469.00;;;;5042058;28;20682;-71
2022/10/30 01:54:57;;;;;;;0.20;0.20;;;16.70;99.90;18.20;101466.00;;;;5033893;28;20176;-72
2022/10/30 02:01:30;;;;;;;0.20;0.20;;;16.90;99.90;18.50;101412.00;;;;5046088;28;20719;-72
2022/10/30 02:04:42;;;;;;;0.20;0.20;;;17.00;99.90;18.10;101454.00;;;;5032296;28;20286;-71
2022/10/30 02:07:47;;;;;;;0.50;0.50;;;17.00;99.90;18.00;101468.00;;;;5032405;28;20186;-72
2022/10/30 02:10:41;;;;;;;0.30;0.30;;;16.90;99.90;18.00;101470.00;;;;5050245;28;20182;-72
2022/10/30 02:13:48;;;;;;;0.20;0.20;;;16.80;99.90;18.00;101471.00;;;;5052177;28;20228;-72
2022/10/30 02:16:42;;;;;;;0.20;0.20;;;16.80;99.90;17.90;101420.00;;;;5051948;28;20576;-72
2022/10/30 02:19:47;;;;;;;0.30;0.30;;;16.80;99.90;18.00;101458.00;;;;5030604;28;20193;-72
2022/10/30 02:23:17;;;;;;;0.20;0.20;;;16.80;99.90;18.20;101461.00;;;;5052060;28;20190;-72
2022/10/30 02:26:23;;;;;;;0.70;0.70;;;16.90;99.90;18.00;101416.00;;;;5052410;28;20166;-72
2022/10/30 02:29:14;;;;;;;0.30;0.30;;;16.90;99.90;17.70;101462.00;;;;5051760;28;20698;-72
2022/10/30 02:32:20;;;;;;;0.20;0.20;;;16.80;99.90;17.60;101459.00;;;;5051392;28;20811;-72
2022/10/30 02:35:15;;;;;;;0.20;0.20;;;16.70;99.90;17.40;101460.00;;;;5051333;28;20572;-71
2022/10/30 02:38:11;;;;;;;0.20;0.20;;;16.60;99.90;17.80;101461.00;;;;5053227;28;20206;-72
2022/10/30 02:41:04;;;;;;;0.20;0.20;;;16.60;99.90;17.90;101477.00;;;;5052841;28;20227;-71
2022/10/30 02:44:08;;;;;;;0.20;0.20;;;16.60;99.90;17.80;101459.00;;;;5044605;28;20252;-71
2022/10/30 02:47:06;;;;;;;0.20;0.20;;;16.60;99.90;17.70;101462.00;;;;5051943;28;20178;-71
2022/10/30 02:49:59;;;;;;;0.20;0.20;;;16.50;99.90;17.80;101455.00;;;;5051958;28;20182;-72
2022/10/30 02:53:05;;;;;;;0.20;0.20;;;16.50;99.90;17.80;101479.00;;;;5051685;28;20295;-72
2022/10/30 02:55:56;;;;;;;0.20;0.20;;;16.60;99.90;17.90;101472.00;;;;5039617;28;20236;-72
2022/10/30 02:58:51;;;;;;;0.20;0.20;;;16.70;99.90;17.90;101458.00;;;;5051790;28;20186;-71
2022/10/30 03:01:42;;;;;;;0.30;0.30;;;16.70;99.90;17.60;101425.00;;;;5051387;28;20183;-72
2022/10/30 03:04:46;;;;;;;0.20;0.20;;;16.50;99.90;17.50;101459.00;;;;5052803;28;20217;-72
2022/10/30 03:07:50;;;;;;;0.27;0.27;;;16.40;99.90;17.50;101463.00;;;;5051851;28;20654;-72
2022/10/30 03:10:47;;;;;;;0.23;0.23;;;16.40;99.90;17.40;101461.00;;;;5034157;28;20606;-72
2022/10/30 03:13:56;;;;;;;0.63;0.63;;;16.40;99.90;17.40;101442.00;;;;5051524;28;20200;-72
2022/10/30 03:17:02;;;;;;;0.20;0.20;;;16.40;99.90;17.20;101464.00;;;;5052152;28;20306;-72
2022/10/30 03:20:08;;;;;;;0.30;0.30;;;16.30;99.90;17.10;101454.00;;;;5053737;28;20267;-72
2022/10/30 03:22:56;;;;;;;0.30;0.30;;;16.30;99.90;17.40;101451.00;;;;5054703;28;20197;-72
2022/10/30 03:25:55;;;;;;;0.27;0.27;;;16.20;99.90;17.50;101451.00;;;;5055576;28;20185;-72
2022/10/30 03:28:56;;;;;;;0.70;0.70;;;16.30;99.90;17.90;101405.00;;;;5053118;28;20207;-72
2022/10/30 03:31:45;;;;;;;0.60;0.60;;;16.40;99.90;17.80;101461.00;;;;5054691;28;20689;-72
2022/10/30 03:34:53;;;;;;;0.20;0.20;;;16.50;99.90;18.10;101451.00;;;;5056181;28;20209;-71
2022/10/30 03:37:56;;;;;;;0.30;0.30;;;16.60;99.90;17.90;101406.00;;;;5055139;28;20227;-71
2022/10/30 03:40:47;;;;;;;0.40;0.40;;;16.50;99.90;17.80;101446.00;;;;5053888;28;20209;-71
2022/10/30 03:43:51;;;;;;;0.63;0.63;;;16.50;99.90;17.60;101410.00;;;;5037976;28;20204;-72
2022/10/30 03:47:02;;;;;;;0.30;0.30;;;16.40;99.90;17.60;101446.00;;;;5054502;28;20649;-72
2022/10/30 03:50:05;;;;;;;0.20;0.20;;;16.30;99.90;18.00;101453.00;;;;5055887;28;20173;-71
2022/10/30 03:52:59;;;;;;;0.20;0.20;;;16.40;99.90;18.10;101455.00;;;;5054602;28;20211;-72
2022/10/30 03:55:57;;;;;;;0.20;0.20;;;16.60;99.90;17.90;101458.00;;;;5055030;28;20163;-72
2022/10/30 03:59:08;;;;;;;0.30;0.30;;;16.60;99.90;17.60;101457.00;;;;5054443;28;20701;-72
2022/10/30 04:01:37;;;;;;;0.30;0.30;;;16.40;99.90;17.40;101455.00;;;;5055736;28;20191;-72
2022/10/30 04:04:08;;;;;;;0.23;0.23;;;16.30;99.90;17.40;101449.00;;;;5054431;28;20207;-72
2022/10/30 04:06:34;;;;;;;0.33;0.33;;;16.20;99.90;17.10;101432.00;;;;5054917;28;20188;-72
2022/10/30 04:09:20;;;;;;;0.20;0.20;;;16.00;99.90;17.10;101448.00;;;;5055961;28;20184;-72
2022/10/30 04:11:49;;;;;;;0.30;0.30;;;15.90;99.90;17.20;101418.00;;;;5053657;28;20224;-72
2022/10/30 04:14:18;;;;;;;3.03;2.93;;;15.90;99.90;16.90;101434.00;;;;5055688;28;20193;-71
2022/10/30 04:16:43;;;;;;;0.30;0.30;;;15.80;99.90;16.80;101453.00;;;;5055589;28;20185;-71
2022/10/30 04:19:12;;;;;;;0.20;0.20;;;15.80;99.90;17.00;101440.00;;;;5054109;28;20626;-71
2022/10/30 04:21:42;;;;;;;0.20;0.20;;;15.80;99.90;16.80;101448.00;;;;5055281;28;20658;-71
2022/10/30 04:24:08;;;;;;;0.20;0.20;;;15.80;99.90;16.80;101442.00;;;;5054962;28;20182;-71
2022/10/30 04:26:35;;;;;;;0.20;0.20;;;15.80;99.90;16.90;101452.00;;;;5054819;28;20220;-71
2022/10/30 04:29:03;;;;;;;0.30;0.30;;;15.80;99.90;16.90;101445.00;;;;5055432;28;20253;-72
2022/10/30 04:31:31;;;;;;;0.30;0.30;;;15.90;99.90;16.60;101463.00;;;;5053908;28;20346;-72
2022/10/30 04:34:00;;;;;;;0.30;0.30;;;15.80;99.90;16.80;101461.00;;;;5054261;28;20185;-71
2022/10/30 04:36:31;;;;;;;0.97;0.97;;;15.80;99.90;17.00;101461.00;;;;5054102;28;20170;-71
2022/10/30 04:39:05;;;;;;;3.70;2.27;;;15.80;99.90;17.00;101455.00;;;;5054854;28;20185;-71
2022/10/30 04:41:31;;;;;;;0.20;0.20;;;15.90;99.90;16.70;101440.00;;;;5053775;28;20317;-72
2022/10/30 04:43:57;;;;;;;0.20;0.20;;;15.90;99.90;17.10;101449.00;;;;5054798;28;20223;-71
2022/10/30 04:46:23;;;;;;;0.50;0.50;;;15.90;99.90;17.30;101450.00;;;;5054068;28;20693;-71
2022/10/30 04:48:56;;;;;;;1.17;1.17;;;16.00;99.90;16.80;101448.00;;;;5054696;28;20187;-71
2022/10/30 04:51:24;;;;;;;0.40;0.40;;;15.90;99.90;17.20;101437.00;;;;5054757;28;20180;-71
2022/10/30 04:54:01;;;;;;;0.30;0.30;;;15.90;99.90;17.60;101439.00;;;;5055240;28;20185;-71
2022/10/30 04:56:27;;;;;;;0.30;0.30;;;16.20;99.90;17.70;101451.00;;;;5054749;28;20254;-71
2022/10/30 04:58:53;;;;;;;0.30;0.30;;;16.20;99.90;17.30;101449.00;;;;5054779;28;20162;-71
2022/10/30 05:01:21;;;;;;;0.30;0.30;;;16.10;99.90;17.30;101441.00;;;;5053329;28;20197;-71
2022/10/30 05:03:50;;;;;;;0.30;0.30;;;16.00;99.90;17.70;101435.00;;;;5069628;28;20200;-70
2022/10/30 05:06:29;;;;;;;0.40;0.40;;;16.20;99.90;17.50;101438.00;;;;5036761;28;20190;-70
2022/10/30 05:08:55;;;;;;;0.30;0.30;;;16.20;99.90;17.60;101436.00;;;;5053440;28;20272;-72
2022/10/30 05:11:24;;;;;;;0.30;0.30;;;16.20;99.90;17.30;101445.00;;;;5052837;28;20185;-72
2022/10/30 05:13:59;;;;;;;0.30;0.30;;;16.10;99.90;17.00;101422.00;;;;5053244;28;20216;-72
2022/10/30 05:16:30;;;;;;;24.73;7.73;;;15.90;99.90;17.50;101441.00;;;;5054297;28;20706;-73
2022/10/30 05:18:59;;;;;;;0.30;0.30;;;16.00;99.90;17.70;101441.00;;;;5053165;28;20177;-72
2022/10/30 05:21:25;;;;;;;0.30;0.30;;;16.10;99.90;17.30;101435.00;;;;5054289;28;20180;-72
2022/10/30 05:24:28;;;;;;;0.30;0.30;;;15.90;99.90;16.60;101424.00;;;;5069661;28;20179;-73
2022/10/30 05:27:02;;;;;;;0.43;0.43;;;15.60;99.90;16.50;101424.00;;;;5036598;28;20188;-71
2022/10/30 05:29:31;;;;;;;0.20;0.20;;;15.50;99.90;16.60;101419.00;;;;5054041;28;20631;-71
2022/10/30 05:31:57;;;;;;;0.30;0.30;;;15.40;99.90;16.80;101419.00;;;;5053807;28;20227;-71
2022/10/30 05:34:22;;;;;;;0.30;0.30;;;15.50;99.90;16.50;101425.00;;;;5069299;28;20266;-72
2022/10/30 05:36:51;;;;;;;0.30;0.30;;;15.50;99.90;16.70;101418.00;;;;5052826;28;20684;-72
2022/10/30 05:39:20;;;;;;;0.30;0.30;;;15.40;99.90;16.90;101428.00;;;;5053479;28;20178;-72
2022/10/30 05:41:46;;;;;;;0.30;0.30;;;15.40;99.90;17.20;101429.00;;;;5052385;28;20233;-72
2022/10/30 05:44:12;;;;;;;0.30;0.30;;;15.60;99.90;17.40;101428.00;;;;5052732;28;20168;-72
2022/10/30 05:46:41;;;;;;;4.00;1.33;;;15.80;99.90;17.30;101375.00;;;;5052566;28;20179;-72
2022/10/30 05:49:10;;;;;;;0.30;0.30;;;15.80;99.90;17.20;101421.00;;;;5052560;28;20172;-72
2022/10/30 05:51:38;;;;;;;0.30;0.30;;;15.80;99.90;17.30;101429.00;;;;5052887;28;20222;-72
2022/10/30 05:54:05;;;;;;;0.30;0.30;;;15.80;99.90;17.10;101429.00;;;;5053240;28;20224;-72
2022/10/30 05:56:31;;;;;;;0.40;0.40;;;15.70;99.90;17.00;101418.00;;;;5052807;28;20534;-72
2022/10/30 05:58:59;;;;;;;0.50;0.50;;;15.60;99.90;17.10;101425.00;;;;5069146;28;20189;-72
2022/10/30 06:01:25;;;;;;;0.40;0.40;;;15.60;99.90;16.90;101430.00;;;;5053576;28;20184;-72
2022/10/30 06:03:51;;;;;;;0.40;0.40;;;15.50;99.90;16.20;101390.00;;;;5035477;28;20185;-72
2022/10/30 06:06:20;;;;;;;0.30;0.30;;;15.30;99.90;16.20;101422.00;;;;5052197;28;20661;-72
2022/10/30 06:08:46;;;;;;;0.30;0.30;;;15.10;99.90;16.30;101418.00;;;;5053285;28;20215;-72
2022/10/30 06:11:18;;;;;;;0.30;0.30;;;15.00;99.90;16.50;101422.00;;;;5053211;28;20180;-73
2022/10/30 06:13:49;;;;;;;0.30;0.30;;;15.10;99.90;16.50;101420.00;;;;5052159;28;20538;-72
2022/10/30 06:16:18;;;;;;;0.30;0.30;;;15.00;99.90;16.50;101368.00;;;;5051995;28;20545;-72
2022/10/30 06:18:44;;;;;;;0.30;0.30;;;15.10;99.90;16.50;101364.00;;;;5052023;28;20261;-72
2022/10/30 06:21:13;;;;;;;0.80;0.80;;;15.10;99.90;16.80;101428.00;;;;5035096;28;20635;-72
2022/10/30 06:23:39;;;;;;;0.30;0.30;;;15.30;99.90;16.80;101409.00;;;;5051940;28;20178;-72
2022/10/30 06:26:05;;;;;;;0.30;0.30;;;15.30;99.90;16.90;101414.00;;;;5052089;28;20665;-72
2022/10/30 06:28:31;;;;;;;0.40;0.40;;;15.40;99.90;16.80;101416.00;;;;5052359;28;20217;-72
2022/10/30 06:30:57;;;;;;;0.30;0.30;;;15.30;99.90;16.60;101359.00;;;;5051937;28;20174;-72
2022/10/30 06:33:23;;;;;;;0.40;0.40;;;15.30;99.90;16.40;101404.00;;;;5051895;28;20210;-72
2022/10/30 06:35:52;;;;;;;0.30;0.30;;;15.20;99.90;16.30;101413.00;;;;5041150;28;20217;-71
2022/10/30 06:38:21;;;;;;;0.50;0.50;;;15.10;99.90;16.00;101410.00;;;;5048592;28;20262;-71
2022/10/30 06:40:48;;;;;;;0.40;0.40;;;15.00;99.90;16.20;101407.00;;;;5033184;28;20180;-70
2022/10/30 06:43:14;;;;;;;0.30;0.30;;;14.90;99.90;16.00;101416.00;;;;5032225;28;20198;-71
2022/10/30 06:45:46;;;;;;;0.30;0.30;;;14.90;99.90;16.00;101424.00;;;;5048578;28;20188;-71
2022/10/30 06:48:15;;;;;;;0.50;0.50;;;14.90;99.90;15.90;101419.00;;;;5033053;28;20255;-71
2022/10/30 06:50:43;;;;;;;0.30;0.30;;;14.80;99.90;16.30;101429.00;;;;5047841;28;20632;-71
2022/10/30 06:53:12;;;;;;;0.30;0.30;;;15.00;99.90;16.00;101425.00;;;;5033084;28;20721;-71
2022/10/30 06:55:40;;;;;;;0.40;0.40;;;15.00;99.90;16.60;101430.00;;;;5052532;28;20188;-71
2022/10/30 06:58:08;;;;;;;0.43;0.43;;;15.20;99.90;17.10;101423.00;;;;5036011;28;20185;-71
2022/10/30 07:00:34;;;;;;;0.60;0.60;;;15.40;99.90;16.90;101422.00;;;;5051848;28;20215;-71
2022/10/30 07:03:05;;;;;;;0.30;0.30;;;15.50;99.90;16.90;101375.00;;;;5036786;28;20637;-72
2022/10/30 07:05:31;;;;;;;0.30;0.30;;;15.40;99.90;16.90;101421.00;;;;5037217;28;20162;-71
2022/10/30 07:07:57;;;;;;;0.40;0.40;;;15.50;99.90;16.50;101431.00;;;;5036827;28;20683;-72
2022/10/30 07:10:23;;;;;;;0.30;0.30;;;15.40;99.90;16.20;101421.00;;;;5052154;28;20274;-72
2022/10/30 07:12:54;;;;;;;0.30;0.30;;;15.30;99.90;16.10;101431.00;;;;5052175;28;20206;-71
2022/10/30 07:15:21;;;;;;;0.30;0.30;;;15.30;99.90;16.60;101408.00;;;;5052143;28;20177;-71
2022/10/30 07:17:58;;;;;;;0.30;0.30;;;15.40;99.90;16.30;101426.00;;;;5036710;28;20197;-72
2022/10/30 07:20:29;;;;;;;0.30;0.30;;;15.40;99.90;16.70;101365.00;;;;5036534;28;20197;-72
2022/10/30 07:23:01;;;;;;;0.30;0.30;;;15.50;99.90;17.00;101410.00;;;;5035622;28;20175;-71
2022/10/30 07:25:45;;;;;;;0.30;0.30;;;15.70;99.90;16.90;101420.00;;;;5051021;28;20566;-71
2022/10/30 07:28:11;;;;;;;0.30;0.30;;;15.80;99.90;16.80;101415.00;;;;5052000;28;20173;-71
2022/10/30 07:30:40;;;;;;;0.27;0.27;;;15.70;99.90;16.90;101419.00;;;;5051500;28;20201;-72
2022/10/30 07:33:11;;;;;;;4.80;4.20;;;15.80;99.90;16.80;101422.00;;;;5051277;28;20231;-72
2022/10/30 07:36:08;;;;;;;0.30;0.30;;;15.80;99.90;17.10;101430.00;;;;5044333;28;20248;-71
2022/10/30 07:38:34;;;;;;;0.20;0.20;;;15.90;99.90;17.30;101429.00;;;;5043390;28;20247;-72
2022/10/30 07:41:02;;;;;;;0.20;0.20;;;16.10;99.90;18.00;101423.00;;;;5036433;28;20602;-72
2022/10/30 07:43:28;;;;;;;0.20;0.20;;;16.40;99.90;17.60;101436.00;;;;5035986;28;20548;-72
2022/10/30 07:45:59;;;;;;;0.20;0.20;;;16.50;99.90;17.40;101433.00;;;;5035190;28;20167;-71
2022/10/30 07:48:45;;;;;;;0.20;0.20;;;16.40;99.90;17.70;101454.00;;;;5034646;28;20183;-72
2022/10/30 07:51:18;;;;;;;0.20;0.20;;;16.50;99.90;18.40;101432.00;;;;5050436;28;20206;-72
2022/10/30 07:53:46;;;;;;;0.20;0.20;;;16.80;99.90;19.20;101398.00;;;;5019293;28;20190;-72
2022/10/30 07:56:37;;;;;;;0.27;0.27;;;17.30;99.90;18.60;101443.00;;;;5034894;28;20169;-72
2022/10/30 07:59:38;;;;;;;0.20;0.20;;;17.30;99.90;17.90;101440.00;;;;5034705;28;20178;-72
2022/10/30 08:02:27;;;;;;;0.20;0.20;;;17.10;99.90;17.90;101426.00;;;;5034476;28;20184;-72
2022/10/30 08:05:04;;;;;;;0.73;0.73;;;17.00;99.90;18.40;101436.00;;;;5019950;28;20176;-72
2022/10/30 08:07:54;;;;;;;0.20;0.20;;;17.10;99.90;18.40;101419.00;;;;5042338;28;20593;-72
2022/10/30 08:10:20;;;;;;;0.20;0.20;;;17.10;99.90;18.80;101416.00;;;;5034144;28;20197;-73
2022/10/30 08:12:47;;;;;;;0.20;0.20;;;17.30;99.90;18.80;101371.00;;;;5034470;28;20224;-72
2022/10/30 08:15:41;;;;;;;0.30;0.30;;;17.50;99.90;18.50;101412.00;;;;5035023;28;20217;-72
2022/10/30 08:18:27;;;;;;;0.87;0.87;;;17.50;99.90;18.80;101421.00;;;;5034518;28;20280;-72
2022/10/30 08:20:55;;;;;;;0.20;0.20;;;17.60;99.90;19.10;101376.00;;;;5034164;28;20703;-72
2022/10/30 08:23:24;;;;;;;0.20;0.20;;;17.70;99.90;19.50;101432.00;;;;5017261;28;20247;-72
2022/10/30 08:25:56;;;;;;;0.20;0.20;;;17.90;99.90;19.80;101422.00;;;;5034105;28;20197;-72
2022/10/30 08:28:28;;;;;;;0.20;0.20;;;18.10;99.90;19.30;101442.00;;;;5034058;28;20633;-72
2022/10/30 08:31:01;;;;;;;0.20;0.20;;;18.10;99.90;19.20;101430.00;;;;5024334;28;20243;-72
2022/10/30 08:33:28;;;;;;;0.63;0.63;;;17.90;99.90;19.00;101455.00;;;;5036914;28;20222;-72
2022/10/30 08:35:57;;;;;;;0.20;0.20;;;17.80;99.90;20.10;101467.00;;;;5054185;28;20202;-72
2022/10/30 08:38:25;;;;;;;0.33;0.33;;;18.20;99.90;19.80;101466.00;;;;5037227;28;20717;-72
2022/10/30 08:41:01;;;;;;;0.20;0.20;;;18.60;99.90;20.60;101462.00;;;;5054110;28;20173;-72
2022/10/30 08:43:39;;;;;;;0.20;0.20;;;18.90;99.90;19.80;101477.00;;;;5053671;28;20187;-72
2022/10/30 08:46:24;;;;;;;0.20;0.20;;;18.80;99.90;19.60;101485.00;;;;5053182;28;20197;-72
2022/10/30 08:48:56;;;;;;;1.38;1.38;;;18.70;99.90;20.80;101490.00;;;;5037771;28;20229;-77
2022/10/30 08:51:25;;;;;;;0.20;0.20;;;19.10;99.90;20.90;101462.00;;;;5033654;28;20167;-76
2022/10/30 08:53:53;;;;;;;0.20;0.20;;;19.40;99.90;21.30;101500.00;;;;5033855;28;20242;-76
2022/10/30 08:56:20;;;;;;;0.10;0.10;;;19.70;99.90;20.90;101496.00;;;;5033585;28;20186;-79
2022/10/30 08:59:16;;;;;;;0.57;0.57;;;19.90;99.90;22.70;101513.00;;;;5033495;28;20171;-75
2022/10/30 09:02:19;;;;;;;0.20;0.20;;;20.60;99.90;22.60;101494.00;;;;5017118;28;20190;-75
2022/10/30 09:05:25;;;;;;;0.20;0.20;;;21.20;99.90;21.80;101508.00;;;;5038417;28;20182;-75
2022/10/30 09:08:35;;;;;;;0.20;0.20;;;20.50;99.90;22.90;101514.00;;;;5025578;28;20186;-75
2022/10/30 09:11:27;;;;;;;0.98;0.95;;;20.90;99.90;24.50;101536.00;;;;5052602;28;20190;-76
2022/10/30 09:14:33;;;;;;;0.10;0.10;;;22.10;99.90;25.20;101521.00;;;;5036565;28;20210;-76
2022/10/30 09:17:45;;;;;;;0.20;0.20;;;22.80;99.90;23.80;101569.00;;;;5039410;28;20231;-76
2022/10/30 09:20:48;;;;;;;0.10;0.10;;;23.30;99.90;24.00;101556.00;;;;5055923;28;20280;-75
2022/10/30 09:24:10;;;;;;;0.20;0.20;;;22.30;99.90;24.30;101561.00;;;;5068832;28;20262;-75
2022/10/30 09:27:12;;;;;;;0.20;0.20;;;22.50;99.90;23.70;101549.00;;;;5055335;28;20185;-75
2022/10/30 09:30:21;;;;;;;0.20;0.20;;;22.40;99.90;23.60;101558.00;;;;5061415;28;20211;-75
2022/10/30 09:33:44;;;;;;;0.20;0.20;;;22.00;99.90;23.80;101559.00;;;;5043109;28;20760;-76
2022/10/30 09:36:51;;;;;;;0.10;0.10;;;22.20;99.90;24.90;101577.00;;;;5061065;28;20185;-75
2022/10/30 09:39:41;;;;;;;0.10;0.10;;;22.60;99.90;24.10;101546.00;;;;5044020;28;20591;-75
2022/10/30 09:43:13;;;;;;;0.20;0.20;;;22.80;99.90;24.20;101574.00;;;;5061511;28;20555;-75
2022/10/30 09:46:33;;;;;;;0.10;0.10;;;22.40;99.90;24.90;101579.00;;;;5000386;28;20211;-75
2022/10/30 09:49:43;;;;;;;0.20;0.20;;;23.10;99.90;25.50;101576.00;;;;4933132;29;20194;-75
2022/10/30 09:52:55;;;;;;;2.13;2.03;;;23.60;99.90;25.90;101587.00;;;;4915966;29;21095;-75
2022/10/30 09:55:57;;;;;;;0.20;0.20;;;23.50;99.90;24.70;101579.00;;;;4932643;29;20237;-75
2022/10/30 09:59:35;;;;;;;2.22;2.05;;;23.00;99.90;23.50;101578.00;;;;4918374;29;20641;-75
2022/10/30 10:02:30;;;;;;;0.68;0.68;;;22.90;99.90;23.70;101558.00;;;;4870899;29;20215;-75
2022/10/30 10:05:50;;;;;;;0.10;0.10;;;22.40;99.90;24.40;101558.00;;;;4896136;29;20188;-75
2022/10/30 10:08:44;;;;;;;1.75;1.65;;;22.30;99.90;23.30;101561.00;;;;4931896;28;20254;-75
2022/10/30 10:12:20;;;;;;;0.45;0.45;;;22.50;99.90;23.80;101541.00;;;;4915999;29;20202;-75
2022/10/30 10:16:16;;;;;;;0.22;0.22;;;21.70;99.90;24.20;101564.00;;;;4930261;29;20567;-75
2022/10/30 10:19:15;;;;;;;0.20;0.20;;;22.70;99.90;22.70;101520.00;;;;4940570;28;20233;-75
2022/10/30 10:37:22;;;;;;;0.20;0.20;;;20.50;99.90;23.70;101536.00;;;;5064340;28;20198;-72
2022/10/30 10:40:09;;;;;;;6.22;3.05;;;21.50;99.90;24.40;101555.00;;;;5057862;28;20197;-72
2022/10/30 10:43:11;;;;;;;0.20;0.20;;;22.40;99.90;23.20;101531.00;;;;5061851;28;20201;-73
2022/10/30 10:46:13;;;;;;;0.20;0.20;;;21.80;99.90;23.20;101548.00;;;;5059495;28;20188;-72
2022/10/30 10:48:54;;;;;;;0.20;0.20;;;22.00;99.90;23.40;101543.00;;;;5063857;28;20192;-73
2022/10/30 10:51:55;;;;;;;6.22;5.68;;;21.80;99.90;23.90;101549.00;;;;5070072;28;20202;-72
2022/10/30 10:55:38;;;;;;;0.30;0.30;;;22.00;99.90;24.50;101558.00;;;;5051783;28;20185;-72
2022/10/30 10:58:28;;;;;;;1.30;1.30;;;22.50;99.90;22.70;101494.00;;;;5041520;28;20654;-73
2022/10/30 11:01:41;;;;;;;1.42;1.42;;;21.70;99.90;22.50;101515.00;;;;5050092;28;20197;-72
2022/10/30 11:04:44;;;;;;;0.20;0.20;;;21.50;99.90;22.30;101515.00;;;;5048634;28;20642;-72
2022/10/30 11:07:57;;;;;;;0.40;0.40;;;21.30;99.90;22.80;101506.00;;;;5039679;28;20285;-72
2022/10/30 11:11:09;;;;;;;0.20;0.20;;;21.40;99.90;22.10;101508.00;;;;5043531;28;20186;-73
2022/10/30 11:14:21;;;;;;;0.25;0.25;;;21.20;99.90;22.00;101499.00;;;;5032389;28;20206;-72
2022/10/30 11:17:08;;;;;;;0.30;0.30;;;20.90;99.90;22.00;101486.00;;;;5036138;28;20561;-72
2022/10/30 11:20:20;;;;;;;0.28;0.28;;;20.70;99.90;22.20;101496.00;;;;5048164;28;20261;-72
2022/10/30 11:22:52;;;;;;;0.30;0.30;;;20.70;99.90;21.80;101486.00;;;;5028793;28;20217;-73
2022/10/30 11:25:56;;;;;;;0.40;0.40;;;20.70;99.90;22.50;101513.00;;;;5028395;28;20187;-72
2022/10/30 11:29:11;;;;;;;1.13;0.82;;;21.00;99.90;22.90;101515.00;;;;5045189;28;20743;-72
2022/10/30 11:32:16;;;;;;;0.50;0.50;;;21.20;99.90;21.70;101491.00;;;;5047956;28;20682;-73
2022/10/30 11:35:40;;;;;;;0.30;0.30;;;20.90;99.90;21.60;101494.00;;;;5048323;28;20178;-73
2022/10/30 11:38:55;;;;;;;0.30;0.30;;;20.60;99.90;21.40;101502.00;;;;5017709;28;20201;-73
2022/10/30 11:41:44;;;;;;;0.30;0.30;;;20.50;99.90;21.00;101482.00;;;;5026219;28;20194;-73
2022/10/30 11:44:51;;;;;;;0.30;0.30;;;20.20;99.90;21.50;101484.00;;;;5024133;28;20167;-74
2022/10/30 11:47:56;;;;;;;2.47;1.95;;;20.20;99.90;22.50;101493.00;;;;5017480;28;20195;-74
2022/10/30 11:50:31;;;;;;;0.30;0.30;;;20.70;99.90;22.20;101488.00;;;;5034378;28;20193;-74
2022/10/30 11:53:31;;;;;;;0.30;0.30;;;20.80;99.90;21.40;101477.00;;;;5034546;28;20198;-73
2022/10/30 11:56:43;;;;;;;0.32;0.32;;;20.50;99.90;21.20;101474.00;;;;5034512;28;20194;-74
2022/10/30 11:59:29;;;;;;;0.30;0.30;;;20.50;99.90;22.40;101478.00;;;;5019710;28;20597;-74
2022/10/30 12:02:55;;;;;;;0.30;0.30;;;20.60;99.90;22.20;101489.00;;;;5017662;28;20524;-74
2022/10/30 12:05:41;;;;;;;0.40;0.40;;;21.00;99.90;23.00;101496.00;;;;5017921;28;20269;-74
2022/10/30 12:08:19;;;;;;;0.30;0.30;;;21.20;99.90;23.90;101509.00;;;;5033365;28;20229;-74
2022/10/30 12:10:59;;;;;;;3.33;2.85;;;21.70;99.90;23.10;101503.00;;;;5034066;28;20166;-74
2022/10/30 12:14:12;;;;;;;1.98;1.20;;;21.70;99.90;22.80;101497.00;;;;5034126;28;20282;-74
2022/10/30 12:17:23;;;;;;;0.20;0.20;;;21.40;99.90;22.50;101499.00;;;;5034147;28;20217;-73
2022/10/30 12:20:27;;;;;;;0.20;0.20;;;21.20;99.90;23.20;101495.00;;;;5034452;28;20717;-73
2022/10/30 12:23:21;;;;;;;0.30;0.30;;;21.20;99.90;21.70;101494.00;;;;5033992;28;20224;-74
2022/10/30 12:26:09;;;;;;;0.20;0.20;;;21.20;99.90;21.60;101471.00;;;;5052118;28;20179;-74